»·PEaware :: SWA2198 KLAS-KLAX

SWA2198 :: KLAS-KLAX

FLIGHT INFORMATION

Flight Status: Arrived
Operator:
Southwest Airlines
More flights by this operator :: More flights under this callsign
Pilot: Alec D. (17934)
Aircraft: BOEING 737-200
(B732)
More flights by this aircraft type
Origin: KLAS McCarran Intl
United States
Destination: KLAX Los Angeles Intl
United States
More flights between these airports :: More routes between these airports
Route: +MCCRN5 TNP SEAVU2
File this flight plan on PilotEdge
Remarks:
Altitude:
(Current/Filed)
28,000ft
Speed:
(Current/Filed)
430kts
Departed: 30-Sep-19 08:44 AM
Arrived: 30-Sep-19 09:36 AM
Distance/Time
Traveled:
205nm/0:52
Distance/Time
To Go:
Arrived

Flight Plot

Page will automatically refresh every two minutes.

Flight plan parsing failed; only flown route is shown


Map Options




Map Legend


Flown Route
Filed Route
Departure Airport
Arrival Airport
Navaid (VOR, NDB)
Fix

Horizontal Profiles

Position Reports

Time Latitude Longitude Heading Altitude Ground
Speed
30-Sep-19 08:10 36.082108 -115.148278 64 2187ft 0kts
30-Sep-19 08:11 36.082108 -115.148278 64 2187ft 0kts
30-Sep-19 08:12 36.082108 -115.148278 64 2187ft 0kts
30-Sep-19 08:13 36.082108 -115.148278 64 2187ft 0kts
30-Sep-19 08:14 36.082108 -115.148278 64 2187ft 0kts
30-Sep-19 08:15 36.082108 -115.148278 64 2187ft 0kts
30-Sep-19 08:16 36.082108 -115.148278 64 2187ft 0kts
30-Sep-19 08:17 36.082108 -115.148278 64 2187ft 0kts
30-Sep-19 08:18 36.082108 -115.148278 64 2187ft 0kts
30-Sep-19 08:19 36.082108 -115.148278 64 2187ft 0kts
30-Sep-19 08:20 36.082108 -115.148278 64 2187ft 0kts
30-Sep-19 08:21 36.082108 -115.148278 64 2187ft 0kts
30-Sep-19 08:22 36.082108 -115.148278 64 2187ft 0kts
30-Sep-19 08:23 36.082108 -115.148278 64 2187ft 0kts
30-Sep-19 08:24 36.082108 -115.148278 64 2187ft 0kts
30-Sep-19 08:25 36.082108 -115.148278 64 2187ft 0kts
30-Sep-19 08:26 36.082108 -115.148278 64 2187ft 0kts
30-Sep-19 08:27 36.082108 -115.148278 64 2187ft 0kts
30-Sep-19 08:28 36.082108 -115.148278 64 2187ft 0kts
30-Sep-19 08:29 36.082108 -115.148278 64 2187ft 0kts
30-Sep-19 08:30 36.082108 -115.148278 64 2187ft 0kts
30-Sep-19 08:31 36.082108 -115.148278 64 2187ft 0kts
30-Sep-19 08:32 36.081917 -115.148928 92 2187ft 2kts
30-Sep-19 08:33 36.082020 -115.149304 124 2187ft 0kts
30-Sep-19 08:34 36.082020 -115.149304 124 2187ft 0kts
30-Sep-19 08:35 36.082020 -115.149304 124 2187ft 0kts
30-Sep-19 08:36 36.081894 -115.149208 157 2187ft 8kts
30-Sep-19 08:37 36.078889 -115.147688 152 2187ft 11kts
30-Sep-19 08:38 36.078289 -115.142234 91 2187ft 21kts
30-Sep-19 08:39 36.078259 -115.136202 89 2187ft 25kts
30-Sep-19 08:40 36.078230 -115.129337 92 2187ft 16kts
30-Sep-19 08:41 36.078207 -115.123812 96 2187ft 12kts
30-Sep-19 08:42 36.076372 -115.121598 256 2187ft 4kts
30-Sep-19 08:43 36.076345 -115.137244 269 2187ft 113kts
30-Sep-19 08:44 36.076436 -115.192597 271 3642ft 191kts
30-Sep-19 08:45 36.072525 -115.263801 239 6036ft 228kts
30-Sep-19 08:46 36.010612 -115.306170 200 7015ft 273kts
30-Sep-19 08:47 35.941163 -115.341224 209 7535ft 263kts
30-Sep-19 08:48 35.878737 -115.395179 196 10182ft 281kts
30-Sep-19 08:49 35.800200 -115.380619 164 12757ft 308kts
30-Sep-19 08:50 35.715049 -115.344178 174 14728ft 332kts
30-Sep-19 08:51 35.623151 -115.327229 180 17027ft 338kts
30-Sep-19 08:52 35.529799 -115.301839 171 19399ft 348kts
30-Sep-19 08:53 35.437883 -115.266749 176 21559ft 339kts
30-Sep-19 08:54 35.345847 -115.243938 176 23170ft 343kts
30-Sep-19 08:55 35.252536 -115.211091 173 24571ft 350kts
30-Sep-19 08:56 35.159117 -115.177278 173 25902ft 350kts
30-Sep-19 08:57 35.069154 -115.181413 207 27154ft 315kts
30-Sep-19 08:58 34.990118 -115.227634 212 27951ft 319kts
30-Sep-19 08:59 34.910659 -115.282750 204 27955ft 347kts
30-Sep-19 09:00 34.813224 -115.310593 204 27955ft 365kts
30-Sep-19 09:01 34.719802 -115.362168 208 27960ft 374kts
30-Sep-19 09:02 34.619218 -115.404021 201 27966ft 389kts
30-Sep-19 09:03 34.515246 -115.443801 205 27977ft 394kts
30-Sep-19 09:04 34.413258 -115.494124 206 27984ft 399kts
30-Sep-19 09:05 34.309935 -115.545871 210 27991ft 402kts
30-Sep-19 09:06 34.235757 -115.642436 228 27986ft 398kts
30-Sep-19 09:07 34.145766 -115.721401 222 27991ft 402kts
30-Sep-19 09:08 34.075873 -115.823227 252 28005ft 400kts
30-Sep-19 09:09 34.065172 -115.959254 269 26228ft 414kts
30-Sep-19 09:10 34.069717 -116.094930 256 24213ft 395kts
30-Sep-19 09:11 34.040584 -116.215599 256 24011ft 366kts
30-Sep-19 09:12 34.029119 -116.336804 258 23986ft 359kts
30-Sep-19 09:13 34.015502 -116.455043 258 23972ft 350kts
30-Sep-19 09:14 34.001607 -116.568771 258 23961ft 338kts
30-Sep-19 09:15 33.990633 -116.682146 261 23597ft 353kts
30-Sep-19 09:16 33.982463 -116.802564 262 21785ft 362kts
30-Sep-19 09:17 33.972205 -116.922481 260 20068ft 358kts
30-Sep-19 09:18 33.960435 -117.041098 261 18310ft 358kts
30-Sep-19 09:19 33.951056 -117.160398 262 17009ft 346kts
30-Sep-19 09:20 33.940810 -117.273820 261 16509ft 346kts
30-Sep-19 09:21 33.935441 -117.392368 275 15094ft 360kts
30-Sep-19 09:22 33.974365 -117.490253 301 13219ft 276kts
30-Sep-19 09:23 33.995348 -117.572441 273 11020ft 271kts
30-Sep-19 09:24 34.000142 -117.660160 273 8957ft 241kts
30-Sep-19 09:25 34.004036 -117.741383 273 7107ft 252kts
30-Sep-19 09:26 34.002670 -117.829132 263 7010ft 269kts
30-Sep-19 09:27 33.991786 -117.913465 255 6891ft 243kts
30-Sep-19 09:28 33.976956 -117.995903 269 5480ft 260kts
30-Sep-19 09:29 33.971300 -118.081323 259 5016ft 239kts
30-Sep-19 09:30 33.959839 -118.151247 262 4979ft 189kts
30-Sep-19 09:31 33.953316 -118.218681 266 3728ft 203kts
30-Sep-19 09:32 33.948216 -118.280407 261 2725ft 166kts
30-Sep-19 09:33 33.942252 -118.335759 261 1047ft 151kts
30-Sep-19 09:34 33.937365 -118.382783 261 173ft 137kts
30-Sep-19 09:35 33.935767 -118.401378 282 132ft 7kts
30-Sep-19 09:36 33.936220 -118.404780 261 132ft 14kts
30-Sep-19 09:37 33.937473 -118.407616 358 132ft 13kts
30-Sep-19 09:38 33.939596 -118.406640 356 132ft 0kts

Navigation Log

Ident Type
Flight plan parsing failed, navigation log unavailable